Oka, Canada
Current Conditions -  °F | °C
As of 4:00 PM on Thursday 18 Dec 2014 (Local Time) from CYMX Reporting Station
Broken Clouds Broken Clouds  
Wind Chill: 23°   Ceiling: 5000
Heat Index: 30°   Visibility: 25mi
Dew Point: 25°   Wind: 8mph
Humidity: 80%   Direction: 300°WNW
Pressure: 29.89"   Gusts: NA
Location:  45.47°N, 74.08°W
Report Text: CYMX 182100Z 30007KT 25SM SCT017 BKN050 BKN250 M01/M04 A2989 RMK SC3SC3CI1 SLP127
Loading
Personal Weather Stations






























Interactive Weather Map New forecast layout! Learn more

10-Day Weather Forecast

Advertisements
Track Severe Weather on mobile